Pine Cliff, Utah
Current Conditions -  °F | °C
As of 6:53 PM on Monday 22 Dec 2014 (Local Time) from KEVW Reporting Station
Overcast Overcast  
Wind Chill: 16°   Ceiling: 6000
Heat Index: 26°   Visibility: 10mi
Dew Point: 23°   Wind: 12mph
Humidity: 88%   Direction: 330°NNW
Pressure: 29.99"   Gusts: NA
Location:  40.9431°N, 111.212°W
Report Text: KEVW 230153Z AUTO 33010KT 10SM FEW042 OVC060 M03/M05 A2999 RMK AO2 SNE15 SLP168 P0000 T10331050
Loading
Personal Weather Stations






























Interactive Weather Map New forecast layout! Learn more

10-Day Weather Forecast

Advertisements
Track Severe Weather on mobile